Quantico Creek — WDF5735 — position and weather

sailwx.info

Track history (hours):
 
Tides and Currents Weather Stations Pressure Air Temp Water Temp Dewpoint Dewpoint Depression Visibility Wind Speed Wind Dir Waves Ship Positions

Quantico Creek

Owner: Vane Line Bunkering, Inc., Philadelphia, PA. More information available from US FCC via Universal Licensing System and Coast Guard Vessel Documentation Center.

Last reported at 2017-Dec-10 21:51 UTC. Time now 2017-Dec-11 01:54 UTC.
Position N 27°42' W 082°33'.

Length 31 m; draft 3.9 m.

Type: Other ship. MMSI: 367466650.

Date/timePositionNaut miles runAvg speedWind from/ knotsBaromVisibWave heightAir tempDewpointWater temp
2017-Dec-10 21:51N 27°42' W 082°33'4 8.8
2017-Dec-10 21:25N 27°46' W 082°31'4 8.3
2017-Dec-10 20:58N 27°48' W 082°28'4 8.5
2017-Dec-10 20:30N 27°52' W 082°27'4 8.3
2017-Dec-10 20:00N 27°56' W 082°27'1 2.1
2017-Dec-10 19:30N 27°57' W 082°27'0 0.0
2017-Dec-10 19:00N 27°57' W 082°27'0 0.0
2017-Dec-10 18:30N 27°57' W 082°27'0 0.1
2017-Dec-10 18:00N 27°57' W 082°27'0 0.0
2017-Dec-10 17:30N 27°57' W 082°27'0 0.0
2017-Dec-10 17:00N 27°57' W 082°27'0 0.0
2017-Dec-10 16:30N 27°57' W 082°27'0 0.0
2017-Dec-10 16:00N 27°57' W 082°27'0 0.0
2017-Dec-10 15:30N 27°57' W 082°27'0 0.0
2017-Dec-10 15:00N 27°57' W 082°27'0 0.0
2017-Dec-10 14:30N 27°57' W 082°27'0 0.0
2017-Dec-10 14:00N 27°57' W 082°27'0 0.0
2017-Dec-10 13:30N 27°57' W 082°27'0 0.0
2017-Dec-10 13:00N 27°57' W 082°27'0 0.0
2017-Dec-10 12:30N 27°57' W 082°27'1 1.1
2017-Dec-10 12:00N 27°56' W 082°27'2 4.0
2017-Dec-10 11:30N 27°55' W 082°26'0 1.0
2017-Dec-10 10:59N 27°55' W 082°26'0 0.5
2017-Dec-10 10:26N 27°55' W 082°26'0 0.5
2017-Dec-10 10:00N 27°55' W 082°26'3 5.8
2017-Dec-10 09:30N 27°52' W 082°27'3 7.0
2017-Dec-10 09:00N 27°48' W 082°27'4 7.1
2017-Dec-10 08:30N 27°47' W 082°31'4 7.1
2017-Dec-10 08:00N 27°44' W 082°32'  
2017-Dec-07 01:13N 27°38' W 082°34'0 0.0
2017-Dec-07 00:58N 27°38' W 082°34'  
2017-Dec-04 10:24N 27°55' W 082°26'0 0.0
2017-Dec-04 10:00N 27°55' W 082°26'0 0.0
2017-Dec-04 09:30N 27°55' W 082°26'0 0.0
2017-Dec-04 09:00N 27°55' W 082°26'0 0.0
2017-Dec-04 08:30N 27°55' W 082°26'0 0.0
2017-Dec-04 08:00N 27°55' W 082°26'0 0.0
2017-Dec-04 07:30N 27°55' W 082°26'0 0.0
2017-Dec-04 07:00N 27°55' W 082°26'0 0.0
2017-Dec-04 06:30N 27°55' W 082°26'0 0.0
2017-Dec-04 06:00N 27°55' W 082°26'0 0.0
2017-Dec-04 05:30N 27°55' W 082°26'0 0.0
2017-Dec-04 05:00N 27°55' W 082°26'0 0.0
2017-Dec-04 04:30N 27°55' W 082°26'0 0.0
2017-Dec-04 04:00N 27°55' W 082°26'0 0.0
2017-Dec-04 03:30N 27°55' W 082°26'0 0.0
2017-Dec-04 02:57N 27°55' W 082°26'0 0.0
2017-Dec-04 02:30N 27°55' W 082°26'0 0.0
2017-Dec-04 02:00N 27°55' W 082°26'0 0.0
2017-Dec-04 01:30N 27°55' W 082°26'0 0.0
2017-Dec-04 01:00N 27°55' W 082°26'0 0.0
2017-Dec-04 00:30N 27°55' W 082°26'0 0.0
2017-Dec-04 00:00N 27°55' W 082°26'0 0.0
2017-Dec-03 23:30N 27°55' W 082°26'0 0.0
2017-Dec-03 23:00N 27°55' W 082°26'0 0.0
2017-Dec-03 22:30N 27°55' W 082°26'0 0.0
2017-Dec-03 22:00N 27°55' W 082°26'0 0.0
2017-Dec-03 21:30N 27°55' W 082°26'0 0.0
2017-Dec-03 21:00N 27°55' W 082°26'0 0.0
2017-Dec-03 20:30N 27°55' W 082°26'0 0.0
2017-Dec-03 20:00N 27°55' W 082°26'0 0.1
2017-Dec-03 19:30N 27°55' W 082°26'2 3.0
2017-Dec-03 19:00N 27°56' W 082°27'1 1.7
2017-Dec-03 18:30N 27°57' W 082°27'0 0.0
2017-Dec-03 18:00N 27°57' W 082°27'0 0.0
2017-Dec-03 17:30N 27°57' W 082°27'0 0.0
2017-Dec-03 17:00N 27°57' W 082°27'0 0.0
2017-Dec-03 16:30N 27°57' W 082°27'0 0.0
2017-Dec-03 16:00N 27°57' W 082°27'0 0.0
2017-Dec-03 15:30N 27°57' W 082°27'0 0.0
2017-Dec-03 15:00N 27°57' W 082°27'0 0.0
2017-Dec-03 14:30N 27°57' W 082°27'0 0.0
2017-Dec-03 14:00N 27°57' W 082°27'0 0.0
2017-Dec-03 13:30N 27°57' W 082°27'0 0.0
2017-Dec-03 13:00N 27°57' W 082°27'3 6.3
2017-Dec-03 12:30N 27°54' W 082°26'4 8.9
2017-Dec-03 12:00N 27°49' W 082°27'4 8.2
2017-Dec-03 11:30N 27°47' W 082°31'4 7.5
2017-Dec-03 11:00N 27°44' W 082°32'6 1.2
2017-Dec-03 06:03N 27°38' W 082°34'0 0.0
2017-Dec-03 05:57N 27°38' W 082°34'0 0.0
2017-Dec-03 05:30N 27°38' W 082°34'0 0.0
2017-Dec-03 03:36N 27°38' W 082°34'0 0.1
2017-Dec-03 03:30N 27°38' W 082°34'0 0.0
2017-Dec-02 00:03N 27°38' W 082°34'0 0.1
2017-Dec-01 23:57N 27°38' W 082°34'0 0.0
2017-Dec-01 23:18N 27°38' W 082°34'0 0.0
2017-Dec-01 23:00N 27°38' W 082°34'0 0.0
2017-Dec-01 08:51N 27°38' W 082°34'0 0.0
2017-Dec-01 08:27N 27°38' W 082°34'0 0.0
2017-Dec-01 08:00N 27°38' W 082°34'0 0.0
2017-Dec-01 07:03N 27°38' W 082°34'0 0.2
2017-Dec-01 07:00N 27°38' W 082°34'0 0.0
2017-Dec-01 04:42N 27°38' W 082°34'0 0.0
2017-Dec-01 04:27N 27°38' W 082°34'0 0.0
2017-Dec-01 03:49N 27°38' W 082°34'0 0.0
2017-Dec-01 00:08N 27°38' W 082°34'0 0.0
2017-Nov-30 23:53N 27°38' W 082°34'  
Track history (hours):
 
Tides and Currents Weather Stations Pressure Air Temp Water Temp Dewpoint Dewpoint Depression Visibility Wind Speed Wind Dir Waves Ship Positions

Quantico Creek

Owner: Vane Line Bunkering, Inc., Philadelphia, PA. More information available from US FCC via Universal Licensing System and Coast Guard Vessel Documentation Center.

Last reported at 2017-Dec-10 21:51 UTC. Time now 2017-Dec-11 01:54 UTC.
Position N 27°42' W 082°33'.

Length 31 m; draft 3.9 m.

Type: Other ship. MMSI: 367466650.

Date/timePositionNaut miles runAvg speedWind from/ knotsBaromVisibWave heightAir tempDewpointWater temp
2017-Dec-10 21:51N 27°42' W 082°33'4 8.8
2017-Dec-10 21:25N 27°46' W 082°31'4 8.3
2017-Dec-10 20:58N 27°48' W 082°28'4 8.5
2017-Dec-10 20:30N 27°52' W 082°27'4 8.3
2017-Dec-10 20:00N 27°56' W 082°27'1 2.1
2017-Dec-10 19:30N 27°57' W 082°27'0 0.0
2017-Dec-10 19:00N 27°57' W 082°27'0 0.0
2017-Dec-10 18:30N 27°57' W 082°27'0 0.1
2017-Dec-10 18:00N 27°57' W 082°27'0 0.0
2017-Dec-10 17:30N 27°57' W 082°27'0 0.0
2017-Dec-10 17:00N 27°57' W 082°27'0 0.0
2017-Dec-10 16:30N 27°57' W 082°27'0 0.0
2017-Dec-10 16:00N 27°57' W 082°27'0 0.0
2017-Dec-10 15:30N 27°57' W 082°27'0 0.0
2017-Dec-10 15:00N 27°57' W 082°27'0 0.0
2017-Dec-10 14:30N 27°57' W 082°27'0 0.0
2017-Dec-10 14:00N 27°57' W 082°27'0 0.0
2017-Dec-10 13:30N 27°57' W 082°27'0 0.0
2017-Dec-10 13:00N 27°57' W 082°27'0 0.0
2017-Dec-10 12:30N 27°57' W 082°27'1 1.1
2017-Dec-10 12:00N 27°56' W 082°27'2 4.0
2017-Dec-10 11:30N 27°55' W 082°26'0 1.0
2017-Dec-10 10:59N 27°55' W 082°26'0 0.5
2017-Dec-10 10:26N 27°55' W 082°26'0 0.5
2017-Dec-10 10:00N 27°55' W 082°26'3 5.8
2017-Dec-10 09:30N 27°52' W 082°27'3 7.0
2017-Dec-10 09:00N 27°48' W 082°27'4 7.1
2017-Dec-10 08:30N 27°47' W 082°31'4 7.1
2017-Dec-10 08:00N 27°44' W 082°32'  
2017-Dec-07 01:13N 27°38' W 082°34'0 0.0
2017-Dec-07 00:58N 27°38' W 082°34'  
2017-Dec-04 10:24N 27°55' W 082°26'0 0.0
2017-Dec-04 10:00N 27°55' W 082°26'0 0.0
2017-Dec-04 09:30N 27°55' W 082°26'0 0.0
2017-Dec-04 09:00N 27°55' W 082°26'0 0.0
2017-Dec-04 08:30N 27°55' W 082°26'0 0.0
2017-Dec-04 08:00N 27°55' W 082°26'0 0.0
2017-Dec-04 07:30N 27°55' W 082°26'0 0.0
2017-Dec-04 07:00N 27°55' W 082°26'0 0.0
2017-Dec-04 06:30N 27°55' W 082°26'0 0.0
2017-Dec-04 06:00N 27°55' W 082°26'0 0.0
2017-Dec-04 05:30N 27°55' W 082°26'0 0.0
2017-Dec-04 05:00N 27°55' W 082°26'0 0.0
2017-Dec-04 04:30N 27°55' W 082°26'0 0.0
2017-Dec-04 04:00N 27°55' W 082°26'0 0.0
2017-Dec-04 03:30N 27°55' W 082°26'0 0.0
2017-Dec-04 02:57N 27°55' W 082°26'0 0.0
2017-Dec-04 02:30N 27°55' W 082°26'0 0.0
2017-Dec-04 02:00N 27°55' W 082°26'0 0.0
2017-Dec-04 01:30N 27°55' W 082°26'0 0.0
2017-Dec-04 01:00N 27°55' W 082°26'0 0.0
2017-Dec-04 00:30N 27°55' W 082°26'0 0.0
2017-Dec-04 00:00N 27°55' W 082°26'0 0.0
2017-Dec-03 23:30N 27°55' W 082°26'0 0.0
2017-Dec-03 23:00N 27°55' W 082°26'0 0.0
2017-Dec-03 22:30N 27°55' W 082°26'0 0.0
2017-Dec-03 22:00N 27°55' W 082°26'0 0.0
2017-Dec-03 21:30N 27°55' W 082°26'0 0.0
2017-Dec-03 21:00N 27°55' W 082°26'0 0.0
2017-Dec-03 20:30N 27°55' W 082°26'0 0.0
2017-Dec-03 20:00N 27°55' W 082°26'0 0.1
2017-Dec-03 19:30N 27°55' W 082°26'2 3.0
2017-Dec-03 19:00N 27°56' W 082°27'1 1.7
2017-Dec-03 18:30N 27°57' W 082°27'0 0.0
2017-Dec-03 18:00N 27°57' W 082°27'0 0.0
2017-Dec-03 17:30N 27°57' W 082°27'0 0.0
2017-Dec-03 17:00N 27°57' W 082°27'0 0.0
2017-Dec-03 16:30N 27°57' W 082°27'0 0.0
2017-Dec-03 16:00N 27°57' W 082°27'0 0.0
2017-Dec-03 15:30N 27°57' W 082°27'0 0.0
2017-Dec-03 15:00N 27°57' W 082°27'0 0.0
2017-Dec-03 14:30N 27°57' W 082°27'0 0.0
2017-Dec-03 14:00N 27°57' W 082°27'0 0.0
2017-Dec-03 13:30N 27°57' W 082°27'0 0.0
2017-Dec-03 13:00N 27°57' W 082°27'3 6.3
2017-Dec-03 12:30N 27°54' W 082°26'4 8.9
2017-Dec-03 12:00N 27°49' W 082°27'4 8.2
2017-Dec-03 11:30N 27°47' W 082°31'4 7.5
2017-Dec-03 11:00N 27°44' W 082°32'6 1.2
2017-Dec-03 06:03N 27°38' W 082°34'0 0.0
2017-Dec-03 05:57N 27°38' W 082°34'0 0.0
2017-Dec-03 05:30N 27°38' W 082°34'0 0.0
2017-Dec-03 03:36N 27°38' W 082°34'0 0.1
2017-Dec-03 03:30N 27°38' W 082°34'0 0.0
2017-Dec-02 00:03N 27°38' W 082°34'0 0.1
2017-Dec-01 23:57N 27°38' W 082°34'0 0.0
2017-Dec-01 23:18N 27°38' W 082°34'0 0.0
2017-Dec-01 23:00N 27°38' W 082°34'0 0.0
2017-Dec-01 08:51N 27°38' W 082°34'0 0.0
2017-Dec-01 08:27N 27°38' W 082°34'0 0.0
2017-Dec-01 08:00N 27°38' W 082°34'0 0.0
2017-Dec-01 07:03N 27°38' W 082°34'0 0.2
2017-Dec-01 07:00N 27°38' W 082°34'0 0.0
2017-Dec-01 04:42N 27°38' W 082°34'0 0.0
2017-Dec-01 04:27N 27°38' W 082°34'0 0.0
2017-Dec-01 03:49N 27°38' W 082°34'0 0.0
2017-Dec-01 00:08N 27°38' W 082°34'0 0.0
2017-Nov-30 23:53N 27°38' W 082°34'  

Dump ship's entire track history